Time;durP1;ratioP1;P1;durP2;ratioP2;P2;SDS_P1;SDS_P2;PMS_P1;PMS_P2;Temp;Humidity;BMP_temperature;BMP_pressure;BME280_temperature;BME280_humidity;BME280_pressure;Samples;Min_cycle;Max_cycle;Signal;HPM_P1;HPM_P2
2023/12/06 00:00:40;;;;;;;49.80;24.80;;;1.40;99.90;;;;;;5027464;28;20061;-58
2023/12/06 00:03:07;;;;;;;46.40;23.52;;;1.40;99.90;;;;;;5030740;28;20069;-60
2023/12/06 00:05:34;;;;;;;46.90;23.05;;;1.40;99.90;;;;;;5024049;28;20043;-59
2023/12/06 00:08:01;;;;;;;50.38;23.25;;;1.40;99.90;;;;;;5026310;28;20072;-59
2023/12/06 00:10:28;;;;;;;53.53;24.50;;;1.40;99.90;;;;;;5028808;28;20047;-60
2023/12/06 00:12:54;;;;;;;54.72;25.58;;;1.40;99.90;;;;;;5025771;28;20033;-60
2023/12/06 00:15:21;;;;;;;49.90;24.92;;;1.40;99.90;;;;;;5031190;28;20037;-59
2023/12/06 00:17:48;;;;;;;35.97;18.67;;;1.40;99.90;;;;;;5030266;28;20051;-60
2023/12/06 00:20:15;;;;;;;51.88;25.15;;;1.50;99.90;;;;;;5025726;28;20042;-59
2023/12/06 00:22:42;;;;;;;51.67;25.17;;;1.50;99.90;;;;;;5030338;28;20045;-60
2023/12/06 00:25:08;;;;;;;46.15;21.95;;;1.40;99.90;;;;;;5030930;28;20061;-60
2023/12/06 00:27:37;;;;;;;53.95;26.23;;;1.40;99.90;;;;;;5020580;28;20042;-59
2023/12/06 00:30:05;;;;;;;62.28;27.67;;;1.40;99.90;;;;;;5031117;28;20569;-59
2023/12/06 00:32:31;;;;;;;;;;;1.40;99.90;;;;;;5030852;28;20113;-60
2023/12/06 00:34:58;;;;;;;52.80;25.38;;;1.40;99.90;;;;;;5019468;28;19952;-59
2023/12/06 00:37:25;;;;;;;44.10;20.27;;;1.40;99.90;;;;;;5016659;28;20046;-57
2023/12/06 00:39:52;;;;;;;;;;;1.40;99.90;;;;;;5031318;28;20054;-57
2023/12/06 00:42:19;;;;;;;59.15;25.83;;;1.40;99.90;;;;;;5029683;28;19967;-58
2023/12/06 00:44:46;;;;;;;55.58;25.85;;;1.40;99.90;;;;;;5029155;28;20052;-58
2023/12/06 00:47:13;;;;;;;53.17;25.05;;;1.40;99.90;;;;;;5022649;28;20040;-58
2023/12/06 00:49:39;;;;;;;57.10;25.65;;;1.40;99.90;;;;;;5030601;28;20045;-56
2023/12/06 00:52:06;;;;;;;48.25;24.95;;;1.40;99.90;;;;;;5030161;28;20268;-59
2023/12/06 00:54:33;;;;;;;52.58;25.02;;;1.40;99.90;;;;;;5026422;28;20410;-59
2023/12/06 00:57:00;;;;;;;50.60;26.08;;;1.40;99.90;;;;;;5025366;28;20037;-55
2023/12/06 00:59:27;;;;;;;51.20;25.52;;;1.40;99.90;;;;;;5026723;28;20038;-57
2023/12/06 01:01:54;;;;;;;55.42;26.38;;;1.40;99.90;;;;;;5027641;28;20053;-58
2023/12/06 01:04:21;;;;;;;56.65;27.02;;;1.40;99.90;;;;;;5010371;28;20475;-56
2023/12/06 01:06:48;;;;;;;58.38;27.83;;;1.40;99.90;;;;;;5030619;28;20455;-58
2023/12/06 01:09:15;;;;;;;56.00;26.80;;;1.40;99.90;;;;;;5034219;28;20364;-58
2023/12/06 01:11:42;;;;;;;52.05;24.73;;;1.40;99.90;;;;;;5032785;28;20402;-60
2023/12/06 01:14:09;;;;;;;49.90;25.30;;;1.40;99.90;;;;;;5009452;28;20041;-60
2023/12/06 01:16:35;;;;;;;56.35;27.23;;;1.40;99.90;;;;;;5027162;28;20460;-55
2023/12/06 01:19:02;;;;;;;51.97;26.35;;;1.40;99.90;;;;;;5022217;28;20498;-60
2023/12/06 01:21:29;;;;;;;57.05;27.05;;;1.40;99.90;;;;;;5023822;28;20119;-60
2023/12/06 01:23:56;;;;;;;43.75;19.63;;;1.40;99.90;;;;;;5028039;28;20063;-60
2023/12/06 01:26:23;;;;;;;54.95;25.63;;;1.40;99.90;;;;;;5027406;28;20398;-60
2023/12/06 01:28:50;;;;;;;54.67;27.42;;;1.40;99.90;;;;;;5021582;28;20064;-59
2023/12/06 01:31:17;;;;;;;41.80;20.83;;;1.40;99.90;;;;;;5023963;28;20037;-59
2023/12/06 01:33:44;;;;;;;41.05;20.13;;;1.40;99.90;;;;;;5028068;28;20042;-59
2023/12/06 01:36:10;;;;;;;58.28;26.23;;;1.40;99.90;;;;;;5034171;28;20044;-58
2023/12/06 01:38:37;;;;;;;57.88;27.85;;;1.30;99.90;;;;;;5025395;28;20046;-59
2023/12/06 01:41:04;;;;;;;54.75;26.23;;;1.30;99.90;;;;;;5025398;28;20043;-59
2023/12/06 01:43:31;;;;;;;60.50;26.50;;;1.30;99.90;;;;;;5026344;28;20049;-59
2023/12/06 01:45:58;;;;;;;53.97;27.15;;;1.30;99.90;;;;;;5027537;28;20048;-59
2023/12/06 01:48:25;;;;;;;54.72;27.85;;;1.30;99.90;;;;;;5022861;28;20420;-59
2023/12/06 01:50:53;;;;;;;61.65;27.40;;;1.30;99.90;;;;;;5019658;28;20485;-60
2023/12/06 01:53:19;;;;;;;;;;;1.30;99.90;;;;;;5034310;28;20665;-59
2023/12/06 01:55:46;;;;;;;54.60;24.63;;;1.30;99.90;;;;;;5032006;28;19932;-59
2023/12/06 01:58:13;;;;;;;61.83;28.40;;;1.30;99.90;;;;;;5033630;28;20053;-59
2023/12/06 02:00:40;;;;;;;53.78;25.30;;;1.30;99.90;;;;;;5029111;28;20403;-57
2023/12/06 02:03:08;;;;;;;54.10;26.40;;;1.30;99.90;;;;;;5025069;28;20124;-59
2023/12/06 02:05:35;;;;;;;58.38;26.25;;;1.30;99.90;;;;;;5027416;28;20528;-59
2023/12/06 02:08:04;;;;;;;53.15;26.02;;;1.30;99.90;;;;;;5031382;28;20042;-59
2023/12/06 02:10:30;;;;;;;57.58;27.75;;;1.30;99.90;;;;;;5023514;28;20034;-59
2023/12/06 02:12:57;;;;;;;55.13;26.85;;;1.30;99.90;;;;;;5030445;28;20053;-60
2023/12/06 02:15:24;;;;;;;58.85;28.17;;;1.30;99.90;;;;;;5025540;28;20095;-59
2023/12/06 02:17:52;;;;;;;;;;;1.30;99.90;;;;;;5032123;28;20073;-58
2023/12/06 02:20:19;;;;;;;53.13;25.42;;;1.30;99.90;;;;;;5022300;28;20397;-59
2023/12/06 02:22:48;;;;;;;52.17;25.65;;;1.30;99.90;;;;;;5029016;28;20394;-59
2023/12/06 02:25:15;;;;;;;51.38;25.52;;;1.40;99.90;;;;;;5020423;28;20064;-58
2023/12/06 02:27:44;;;;;;;50.55;25.05;;;1.40;99.90;;;;;;5024951;28;20113;-60
2023/12/06 02:30:12;;;;;;;52.30;25.98;;;1.40;99.90;;;;;;5015678;28;20125;-60
2023/12/06 02:32:39;;;;;;;55.88;26.25;;;1.40;99.90;;;;;;5019624;28;20473;-55
2023/12/06 02:35:18;;;;;;;54.80;25.23;;;1.40;99.90;;;;;;5021121;28;20037;-58
2023/12/06 02:37:48;;;;;;;57.00;24.73;;;1.40;99.90;;;;;;5018899;28;20050;-60
2023/12/06 02:40:16;;;;;;;52.05;25.13;;;1.40;99.90;;;;;;5025573;28;20042;-59
2023/12/06 02:42:43;;;;;;;52.97;26.50;;;1.40;99.90;;;;;;5032012;28;20041;-60
2023/12/06 02:45:10;;;;;;;52.67;25.42;;;1.40;99.90;;;;;;5032569;28;20461;-59
2023/12/06 02:47:38;;;;;;;55.72;25.33;;;1.40;99.90;;;;;;5003277;28;20830;-58
2023/12/06 02:50:05;;;;;;;53.22;26.20;;;1.40;99.90;;;;;;5029063;28;20124;-59
2023/12/06 02:52:32;;;;;;;47.05;24.50;;;1.50;99.90;;;;;;5022505;28;20064;-59
2023/12/06 02:54:59;;;;;;;49.55;25.63;;;1.50;99.90;;;;;;5032347;28;20049;-59
2023/12/06 02:57:26;;;;;;;54.83;27.08;;;1.50;99.90;;;;;;5014122;28;20045;-59
2023/12/06 02:59:52;;;;;;;51.50;26.17;;;1.50;99.90;;;;;;5032284;28;20045;-60
2023/12/06 03:02:19;;;;;;;53.92;26.80;;;1.50;99.90;;;;;;5031920;28;20046;-57
2023/12/06 03:04:46;;;;;;;53.53;25.75;;;1.50;99.90;;;;;;5021142;28;20055;-57
2023/12/06 03:07:13;;;;;;;;;;;1.50;99.90;;;;;;5029533;28;20038;-60
2023/12/06 03:09:40;;;;;;;53.53;24.40;;;1.50;99.90;;;;;;5030690;28;19933;-60
2023/12/06 03:12:07;;;;;;;56.83;26.38;;;1.50;99.90;;;;;;5028489;28;20445;-60
2023/12/06 03:14:34;;;;;;;56.78;26.88;;;1.50;99.90;;;;;;5031898;28;20121;-60
2023/12/06 03:17:00;;;;;;;54.03;26.17;;;1.50;99.90;;;;;;5025309;28;20059;-59
2023/12/06 03:19:27;;;;;;;50.13;25.23;;;1.50;99.90;;;;;;5029256;28;20557;-60
2023/12/06 03:21:54;;;;;;;50.85;25.63;;;1.50;99.90;;;;;;5016213;28;20092;-59
2023/12/06 03:24:21;;;;;;;51.40;24.55;;;1.50;99.90;;;;;;5026235;28;20034;-60
2023/12/06 03:26:47;;;;;;;56.03;25.75;;;1.50;99.90;;;;;;5031810;28;20482;-58
2023/12/06 03:29:14;;;;;;;36.80;19.20;;;1.50;99.90;;;;;;5021199;28;20109;-60
2023/12/06 03:31:41;;;;;;;38.03;17.10;;;1.50;99.90;;;;;;5030602;28;20049;-58
2023/12/06 03:34:08;;;;;;;55.58;25.98;;;1.40;99.90;;;;;;5031395;28;20048;-59
2023/12/06 03:36:35;;;;;;;50.28;25.55;;;1.50;99.90;;;;;;5031951;28;20120;-59
2023/12/06 03:39:02;;;;;;;57.83;26.85;;;1.50;99.90;;;;;;5023950;28;20081;-58
2023/12/06 03:41:28;;;;;;;51.70;24.88;;;1.40;99.90;;;;;;5031344;28;20064;-60
2023/12/06 03:43:55;;;;;;;51.78;24.45;;;1.50;99.90;;;;;;5031468;28;20402;-57
2023/12/06 03:46:29;;;;;;;58.55;26.02;;;1.50;99.90;;;;;;5025363;28;20122;-59
2023/12/06 03:48:56;;;;;;;53.67;25.65;;;1.40;99.90;;;;;;5011956;28;20068;-57
2023/12/06 03:51:23;;;;;;;53.08;25.17;;;1.40;99.90;;;;;;5031205;28;20065;-58
2023/12/06 03:53:49;;;;;;;48.75;23.40;;;1.40;99.90;;;;;;5031496;28;20041;-58
2023/12/06 03:56:16;;;;;;;52.60;25.30;;;1.40;99.90;;;;;;5016713;28;20045;-58
2023/12/06 03:58:43;;;;;;;57.05;26.35;;;1.40;99.90;;;;;;5031547;28;20048;-58
2023/12/06 04:01:10;;;;;;;55.70;24.58;;;1.40;99.90;;;;;;5033064;28;20046;-59
2023/12/06 04:03:37;;;;;;;58.58;26.30;;;1.40;99.90;;;;;;5035109;28;20045;-60
2023/12/06 04:06:04;;;;;;;54.45;25.08;;;1.40;99.90;;;;;;5031269;28;20486;-59
2023/12/06 04:08:30;;;;;;;54.10;25.10;;;1.40;99.90;;;;;;5022166;28;20500;-58
2023/12/06 04:10:57;;;;;;;51.92;25.17;;;1.40;99.90;;;;;;5028674;28;20042;-59
2023/12/06 04:13:24;;;;;;;38.20;18.35;;;1.40;99.90;;;;;;5022540;28;20052;-60
2023/12/06 04:15:52;;;;;;;54.08;24.92;;;1.40;99.90;;;;;;5027533;28;20049;-57
2023/12/06 04:18:19;;;;;;;51.08;23.52;;;1.40;99.90;;;;;;5023825;28;20038;-60
2023/12/06 04:20:46;;;;;;;50.55;24.40;;;1.40;99.90;;;;;;5015797;28;20438;-56
2023/12/06 04:23:13;;;;;;;53.80;24.75;;;1.50;99.90;;;;;;5028506;28;20050;-60
2023/12/06 04:25:40;;;;;;;51.75;24.10;;;1.50;99.90;;;;;;5029400;28;20041;-60
2023/12/06 04:28:07;;;;;;;54.42;25.00;;;1.50;99.90;;;;;;5023449;28;20112;-60
2023/12/06 04:30:34;;;;;;;55.47;25.23;;;1.50;99.90;;;;;;5033152;28;20437;-58
2023/12/06 04:33:01;;;;;;;50.13;23.77;;;1.40;99.90;;;;;;5022340;28;20091;-59
2023/12/06 04:35:28;;;;;;;56.45;25.05;;;1.50;99.90;;;;;;5033875;28;20029;-58
2023/12/06 04:37:55;;;;;;;59.95;25.88;;;1.40;99.90;;;;;;5031672;28;20037;-60
2023/12/06 04:40:22;;;;;;;59.38;26.20;;;1.40;99.90;;;;;;5026595;28;20041;-60
2023/12/06 04:42:48;;;;;;;60.30;25.85;;;1.40;99.90;;;;;;5034791;28;20080;-60
2023/12/06 04:45:15;;;;;;;63.00;26.90;;;1.40;99.90;;;;;;5026048;28;20129;-60
2023/12/06 04:47:42;;;;;;;62.60;26.65;;;1.40;99.90;;;;;;5029409;28;20397;-59
2023/12/06 04:50:09;;;;;;;56.60;24.10;;;1.40;99.90;;;;;;5023999;28;20088;-59
2023/12/06 04:52:36;;;;;;;56.35;26.33;;;1.40;99.90;;;;;;5026968;28;20038;-58
2023/12/06 04:55:04;;;;;;;56.33;24.60;;;1.40;99.90;;;;;;5017590;28;20070;-60
2023/12/06 04:57:31;;;;;;;57.17;26.58;;;1.30;99.90;;;;;;5034765;28;20044;-59
2023/12/06 04:59:58;;;;;;;45.30;19.92;;;1.30;99.90;;;;;;5016822;28;20458;-60
2023/12/06 05:02:25;;;;;;;59.95;25.75;;;1.30;99.90;;;;;;5031774;28;20381;-58
2023/12/06 05:04:51;;;;;;;59.15;25.85;;;1.30;99.90;;;;;;5023930;28;20045;-58
2023/12/06 05:07:18;;;;;;;57.13;26.90;;;1.30;99.90;;;;;;5031376;28;20120;-59
2023/12/06 05:09:45;;;;;;;60.42;26.08;;;1.30;99.90;;;;;;5027148;28;20037;-59
2023/12/06 05:12:13;;;;;;;57.60;27.73;;;1.30;99.90;;;;;;5027040;28;20401;-60
2023/12/06 05:14:41;;;;;;;60.47;27.25;;;1.30;99.90;;;;;;5028603;28;20045;-58
2023/12/06 05:17:08;;;;;;;58.30;27.10;;;1.30;99.90;;;;;;5029126;28;20413;-60
2023/12/06 05:19:34;;;;;;;63.10;26.08;;;1.30;99.90;;;;;;5034311;28;20037;-60
2023/12/06 05:22:01;;;;;;;56.80;25.15;;;1.30;99.90;;;;;;5022011;28;20502;-59
2023/12/06 05:24:28;;;;;;;59.33;27.77;;;1.30;99.90;;;;;;5025105;28;20065;-59
2023/12/06 05:26:55;;;;;;;54.97;26.40;;;1.30;99.90;;;;;;5025734;28;20116;-59
2023/12/06 05:29:22;;;;;;;56.83;26.15;;;1.40;99.90;;;;;;5024361;28;20045;-59
2023/12/06 05:31:49;;;;;;;60.63;27.90;;;1.40;99.90;;;;;;5021682;28;20045;-57
2023/12/06 05:34:15;;;;;;;67.97;28.00;;;1.40;99.90;;;;;;5009041;28;20040;-59
2023/12/06 05:36:42;;;;;;;65.45;28.30;;;1.40;99.90;;;;;;5033426;28;20457;-60
2023/12/06 05:39:10;;;;;;;57.88;26.08;;;1.40;99.90;;;;;;5032807;28;20053;-56
2023/12/06 05:41:37;;;;;;;67.22;27.80;;;1.40;99.90;;;;;;5028152;28;20433;-59
2023/12/06 05:44:07;;;;;;;61.05;29.02;;;1.40;99.90;;;;;;5033818;28;20042;-58
2023/12/06 05:46:34;;;;;;;60.28;25.92;;;1.40;99.90;;;;;;5028126;28;20037;-59
2023/12/06 05:49:00;;;;;;;46.00;20.08;;;1.40;99.90;;;;;;5015745;28;20055;-59
2023/12/06 05:51:27;;;;;;;55.47;26.52;;;1.40;99.90;;;;;;5032183;28;20458;-59
2023/12/06 05:53:55;;;;;;;69.97;28.70;;;1.40;99.90;;;;;;5033678;28;20049;-59
2023/12/06 05:56:22;;;;;;;58.83;26.80;;;1.40;99.90;;;;;;5024446;28;20042;-58
2023/12/06 05:58:49;;;;;;;40.03;19.33;;;1.50;99.90;;;;;;5033247;28;20056;-57
2023/12/06 06:01:15;;;;;;;59.03;26.60;;;1.50;99.90;;;;;;5030720;28;20053;-59
2023/12/06 06:03:42;;;;;;;56.72;25.45;;;1.50;99.90;;;;;;5033326;28;20052;-60
2023/12/06 06:06:10;;;;;;;57.25;26.90;;;1.50;99.90;;;;;;5031931;28;20540;-60
2023/12/06 06:08:36;;;;;;;57.95;25.95;;;1.50;99.90;;;;;;5015402;28;20398;-59
2023/12/06 06:11:04;;;;;;;52.53;25.27;;;1.50;99.90;;;;;;5014501;28;20033;-56
2023/12/06 06:13:31;;;;;;;55.50;25.17;;;1.50;99.90;;;;;;5025192;28;20117;-60
2023/12/06 06:15:58;;;;;;;59.13;26.60;;;1.60;99.90;;;;;;5033265;28;20077;-58
2023/12/06 06:18:27;;;;;;;;;;;1.60;99.90;;;;;;5023263;28;20037;-59
2023/12/06 06:20:54;;;;;;;;;;;1.60;99.90;;;;;;5022363;28;19928;-60
2023/12/06 06:23:21;;;;;;;51.78;27.00;;;1.60;99.90;;;;;;5031492;28;19925;-60
2023/12/06 06:25:48;;;;;;;62.13;28.75;;;1.60;99.90;;;;;;5031726;28;20049;-59
2023/12/06 06:28:15;;;;;;;63.65;28.38;;;1.50;99.90;;;;;;5031150;28;20045;-60
2023/12/06 06:30:42;;;;;;;51.22;24.55;;;1.50;99.90;;;;;;5028888;28;20053;-59
2023/12/06 06:33:09;;;;;;;59.35;26.60;;;1.50;99.90;;;;;;5013975;28;20387;-59
2023/12/06 06:35:36;;;;;;;50.45;24.75;;;1.50;99.90;;;;;;5032602;28;20099;-59
2023/12/06 06:38:02;;;;;;;57.35;26.85;;;1.60;99.90;;;;;;5028098;28;20042;-59
2023/12/06 06:40:29;;;;;;;53.25;24.83;;;1.60;99.90;;;;;;5031955;28;20129;-60
2023/12/06 06:42:56;;;;;;;34.15;16.85;;;1.60;99.90;;;;;;5032545;28;20041;-59
2023/12/06 06:45:23;;;;;;;49.60;23.17;;;1.70;99.90;;;;;;5032430;28;20059;-59
2023/12/06 06:47:50;;;;;;;61.70;23.30;;;1.70;99.90;;;;;;5030040;28;20053;-58
2023/12/06 06:50:16;;;;;;;53.05;24.70;;;1.70;99.90;;;;;;5032454;28;20033;-60
2023/12/06 06:52:47;;;;;;;67.72;30.60;;;1.60;99.90;;;;;;5032028;28;20121;-60
2023/12/06 06:55:14;;;;;;;74.68;34.13;;;1.70;99.90;;;;;;5017575;28;20042;-59
2023/12/06 06:57:41;;;;;;;;;;;1.60;99.90;;;;;;5032596;28;20128;-59
2023/12/06 07:00:10;;;;;;;65.70;28.55;;;1.70;99.90;;;;;;5031573;28;19983;-60
2023/12/06 07:02:38;;;;;;;58.83;27.13;;;1.60;99.90;;;;;;5017361;28;20164;-59
2023/12/06 07:05:06;;;;;;;57.22;26.45;;;1.60;99.90;;;;;;5023339;28;20193;-60
2023/12/06 07:07:33;;;;;;;56.25;27.00;;;1.60;99.90;;;;;;5029029;28;20045;-59
2023/12/06 07:10:04;;;;;;;68.30;29.85;;;1.60;99.90;;;;;;5026674;28;20060;-59
2023/12/06 07:12:32;;;;;;;66.03;28.38;;;1.60;99.90;;;;;;5010886;28;20075;-59
2023/12/06 07:14:59;;;;;;;59.45;27.77;;;1.70;99.90;;;;;;5021118;28;20052;-60
2023/12/06 07:17:26;;;;;;;56.78;26.52;;;1.70;99.90;;;;;;5017607;28;20099;-59
2023/12/06 07:19:54;;;;;;;62.45;27.20;;;1.70;99.90;;;;;;5025292;28;20052;-61
2023/12/06 07:22:22;;;;;;;58.30;28.38;;;1.70;99.90;;;;;;5022657;28;20062;-58
2023/12/06 07:24:48;;;;;;;;;;;1.70;99.90;;;;;;5024926;28;20048;-58
2023/12/06 07:27:15;;;;;;;61.47;27.00;;;1.60;99.90;;;;;;5030744;28;19925;-60
2023/12/06 07:29:43;;;;;;;65.85;27.35;;;1.60;99.90;;;;;;5031253;28;20049;-58
2023/12/06 07:32:10;;;;;;;65.07;29.02;;;1.70;99.90;;;;;;5028509;28;20046;-59
2023/12/06 07:34:37;;;;;;;62.97;29.85;;;1.70;99.90;;;;;;5031433;28;20113;-61
2023/12/06 07:37:16;;;;;;;70.70;30.90;;;1.70;99.90;;;;;;5031207;28;20042;-60
2023/12/06 07:39:43;;;;;;;70.13;28.90;;;1.70;99.90;;;;;;5020126;28;20045;-60
2023/12/06 07:42:10;;;;;;;66.43;28.67;;;1.70;99.90;;;;;;5018720;28;20042;-60
2023/12/06 07:44:37;;;;;;;66.22;29.15;;;1.70;99.90;;;;;;5030406;28;20072;-61
2023/12/06 07:47:04;;;;;;;60.10;27.08;;;1.70;99.90;;;;;;5028929;28;20397;-61
2023/12/06 07:49:31;;;;;;;56.85;26.90;;;1.70;99.90;;;;;;5022295;28;20128;-60
2023/12/06 07:51:57;;;;;;;71.05;31.63;;;1.80;99.90;;;;;;5021733;28;20053;-59
2023/12/06 07:54:25;;;;;;;69.50;32.65;;;1.80;99.90;;;;;;5024684;28;20042;-61
2023/12/06 07:56:52;;;;;;;65.85;29.25;;;1.80;99.90;;;;;;5031094;28;20277;-59
2023/12/06 07:59:19;;;;;;;42.65;21.67;;;1.80;99.90;;;;;;5022070;28;20453;-59
2023/12/06 08:01:46;;;;;;;64.70;29.75;;;1.80;99.90;;;;;;5030650;28;20057;-59
2023/12/06 08:04:15;;;;;;;62.10;29.08;;;1.80;99.90;;;;;;5028305;28;20041;-60
2023/12/06 08:06:42;;;;;;;64.80;28.02;;;1.80;99.90;;;;;;5033851;28;20060;-58
2023/12/06 08:09:12;;;;;;;67.13;29.23;;;1.80;99.90;;;;;;5032347;28;20422;-59
2023/12/06 08:11:41;;;;;;;66.05;29.42;;;1.90;99.90;;;;;;5025602;28;20053;-59
2023/12/06 08:14:08;;;;;;;65.63;28.60;;;2.00;99.90;;;;;;5029035;28;20042;-59
2023/12/06 08:16:35;;;;;;;61.05;27.35;;;2.00;99.90;;;;;;5036495;28;20102;-59
2023/12/06 08:19:01;;;;;;;71.80;31.23;;;2.10;99.90;;;;;;5037972;28;20049;-58
2023/12/06 08:21:28;;;;;;;62.63;29.48;;;2.10;99.90;;;;;;5032964;28;20167;-59
2023/12/06 08:23:55;;;;;;;60.08;28.05;;;2.10;99.90;;;;;;5029468;28;20413;-59
2023/12/06 08:26:22;;;;;;;38.45;20.40;;;2.20;99.90;;;;;;5033738;28;20393;-60
2023/12/06 08:28:49;;;;;;;74.53;34.65;;;2.20;99.90;;;;;;5029959;28;20409;-60
2023/12/06 08:31:16;;;;;;;68.72;32.22;;;2.20;99.90;;;;;;5036038;28;20041;-60
2023/12/06 08:33:42;;;;;;;68.50;30.10;;;2.10;99.90;;;;;;5017875;28;20075;-59
2023/12/06 08:36:10;;;;;;;71.72;33.15;;;2.20;99.90;;;;;;5037370;28;20038;-59
2023/12/06 08:38:36;;;;;;;70.00;32.05;;;2.10;99.90;;;;;;5034315;28;20129;-60
2023/12/06 08:41:05;;;;;;;64.55;30.42;;;2.10;99.90;;;;;;5016046;28;20498;-60
2023/12/06 08:43:34;;;;;;;65.05;31.13;;;2.20;99.90;;;;;;5037113;28;20076;-59
2023/12/06 08:46:01;;;;;;;62.75;31.88;;;2.30;99.90;;;;;;5028658;28;20565;-60
2023/12/06 08:48:28;;;;;;;63.88;30.88;;;2.30;99.90;;;;;;5036796;28;20040;-59
2023/12/06 08:50:55;;;;;;;78.10;36.35;;;2.40;99.90;;;;;;5036116;28;20045;-58
2023/12/06 08:53:22;;;;;;;158.15;57.70;;;2.40;99.90;;;;;;5020973;28;20121;-60
2023/12/06 08:55:49;;;;;;;61.70;26.67;;;2.50;99.90;;;;;;5018404;28;20034;-59
2023/12/06 08:58:16;;;;;;;59.25;29.70;;;2.50;99.90;;;;;;5029669;28;20052;-60
2023/12/06 09:00:42;;;;;;;62.42;30.60;;;2.50;99.90;;;;;;5024936;28;20049;-59
2023/12/06 09:03:10;;;;;;;63.03;28.85;;;2.50;99.90;;;;;;5036664;28;20465;-58
2023/12/06 09:05:38;;;;;;;67.70;31.67;;;2.60;99.90;;;;;;5036108;28;20042;-59
2023/12/06 09:08:06;;;;;;;65.60;31.20;;;2.70;99.90;;;;;;5031025;28;20038;-59
2023/12/06 09:10:32;;;;;;;62.65;30.52;;;2.70;99.90;;;;;;5025876;28;20064;-60
2023/12/06 09:12:59;;;;;;;43.53;22.75;;;2.60;99.90;;;;;;5010782;28;20106;-59
2023/12/06 09:15:27;;;;;;;53.40;26.73;;;2.60;99.90;;;;;;5037066;28;20037;-60
2023/12/06 09:17:54;;;;;;;62.47;28.50;;;2.50;99.90;;;;;;5031124;28;20047;-60
2023/12/06 09:20:20;;;;;;;60.53;30.55;;;2.40;99.90;;;;;;5033812;28;20091;-60
2023/12/06 09:22:47;;;;;;;61.42;29.20;;;2.50;99.90;;;;;;5021834;28;20041;-59
2023/12/06 09:25:14;;;;;;;55.58;28.63;;;2.50;99.90;;;;;;5010311;28;20042;-60
2023/12/06 09:27:41;;;;;;;61.58;29.13;;;2.60;99.90;;;;;;5032502;28;20048;-60
2023/12/06 09:30:08;;;;;;;42.97;19.73;;;2.60;99.90;;;;;;5033549;28;20073;-59
2023/12/06 09:32:35;;;;;;;70.57;33.10;;;2.60;99.90;;;;;;5023149;28;20030;-59
2023/12/06 09:35:02;;;;;;;61.33;31.90;;;2.70;99.90;;;;;;5022561;28;20086;-60
2023/12/06 09:37:29;;;;;;;66.43;31.67;;;2.80;99.90;;;;;;5017187;28;20046;-59
2023/12/06 09:39:56;;;;;;;61.65;30.63;;;2.80;99.90;;;;;;5018605;28;20379;-59
2023/12/06 09:42:25;;;;;;;62.17;29.05;;;2.90;99.90;;;;;;5027370;28;20069;-58
2023/12/06 09:44:52;;;;;;;55.53;29.25;;;2.90;99.90;;;;;;5024952;28;20405;-61
2023/12/06 09:47:22;;;;;;;63.78;29.90;;;3.00;99.90;;;;;;5028903;28;20052;-60
2023/12/06 09:49:49;;;;;;;60.55;29.20;;;2.90;99.90;;;;;;5028722;28;20042;-60
2023/12/06 09:52:21;;;;;;;58.13;28.17;;;2.90;99.90;;;;;;5013847;28;20034;-60
2023/12/06 09:54:50;;;;;;;55.72;28.00;;;3.00;99.90;;;;;;5024157;28;20038;-60
2023/12/06 09:57:17;;;;;;;61.90;29.35;;;3.00;99.90;;;;;;5033078;28;20041;-60
2023/12/06 09:59:44;;;;;;;71.95;31.50;;;3.00;99.90;;;;;;5006231;28;20053;-60
2023/12/06 10:02:11;;;;;;;56.92;29.38;;;3.00;99.90;;;;;;5013843;28;20125;-59
2023/12/06 10:04:38;;;;;;;54.92;27.42;;;3.00;99.90;;;;;;5021959;28;20050;-59
2023/12/06 10:07:05;;;;;;;54.22;27.73;;;3.00;99.90;;;;;;5032924;28;20570;-59
2023/12/06 10:09:32;;;;;;;57.92;28.75;;;3.00;99.90;;;;;;5031317;28;20040;-60
2023/12/06 10:12:11;;;;;;;46.90;20.23;;;3.00;99.90;;;;;;5014907;28;20046;-59
2023/12/06 10:14:38;;;;;;;61.72;28.75;;;3.00;99.90;;;;;;5031632;28;20041;-59
2023/12/06 10:17:08;;;;;;;42.88;20.17;;;2.90;99.90;;;;;;5019024;28;20561;-59
2023/12/06 10:19:35;;;;;;;58.67;26.20;;;2.90;99.90;;;;;;5013141;28;20049;-59
2023/12/06 10:22:03;;;;;;;49.78;25.30;;;3.00;99.90;;;;;;5018142;28;20046;-60
2023/12/06 10:24:30;;;;;;;49.10;23.75;;;3.10;99.90;;;;;;5017814;28;20255;-60
2023/12/06 10:27:05;;;;;;;42.90;21.42;;;3.20;99.90;;;;;;5026232;28;20037;-59
2023/12/06 10:29:32;;;;;;;43.08;21.98;;;3.20;99.90;;;;;;5031370;28;20048;-59
2023/12/06 10:31:59;;;;;;;41.67;22.05;;;3.20;99.90;;;;;;5015387;28;20041;-60
2023/12/06 10:34:31;;;;;;;48.95;24.40;;;3.20;99.90;;;;;;5009988;28;20170;-57
2023/12/06 10:37:00;;;;;;;56.50;25.45;;;3.10;99.90;;;;;;5024606;28;20049;-60
2023/12/06 10:39:29;;;;;;;55.78;26.58;;;3.00;99.90;;;;;;5032100;28;20045;-60
2023/12/06 10:42:02;;;;;;;61.17;28.80;;;2.90;99.90;;;;;;5023758;28;20636;-60
2023/12/06 10:44:30;;;;;;;56.95;29.20;;;2.80;99.90;;;;;;5023599;28;20045;-60
2023/12/06 10:46:58;;;;;;;60.20;30.02;;;2.90;99.90;;;;;;5020744;28;20052;-60
2023/12/06 10:49:37;;;;;;;60.65;28.73;;;2.90;99.90;;;;;;5022509;28;20108;-60
2023/12/06 10:52:05;;;;;;;62.72;30.63;;;2.90;99.90;;;;;;5031903;28;20045;-60
2023/12/06 10:54:33;;;;;;;64.53;32.22;;;2.90;99.90;;;;;;5026847;28;20535;-60
2023/12/06 10:57:03;;;;;;;60.03;30.00;;;3.00;99.90;;;;;;5028223;28;20038;-60
2023/12/06 10:59:31;;;;;;;60.45;27.90;;;3.00;99.90;;;;;;5022016;28;20549;-59
2023/12/06 11:01:58;;;;;;;58.75;29.15;;;3.00;99.90;;;;;;5028307;28;20042;-59
2023/12/06 11:04:31;;;;;;;56.38;28.52;;;3.00;99.90;;;;;;5027501;28;20049;-60
2023/12/06 11:07:23;;;;;;;64.60;32.35;;;3.00;99.90;;;;;;5022884;28;20065;-59
2023/12/06 11:09:54;;;;;;;63.30;31.33;;;3.00;99.90;;;;;;5031001;28;20047;-60
2023/12/06 11:12:43;;;;;;;65.13;30.35;;;3.20;99.90;;;;;;5024449;28;20065;-60
2023/12/06 11:15:38;;;;;;;55.58;29.38;;;3.20;99.90;;;;;;5014055;28;20513;-59
2023/12/06 11:18:19;;;;;;;62.35;28.77;;;3.40;99.90;;;;;;5020120;28;20056;-60
2023/12/06 11:20:46;;;;;;;56.25;29.00;;;3.40;99.90;;;;;;5024900;28;20123;-61
2023/12/06 11:23:17;;;;;;;61.65;29.42;;;3.40;99.90;;;;;;5016457;28;20037;-59
2023/12/06 11:25:45;;;;;;;63.10;29.50;;;3.50;99.90;;;;;;5021293;28;20469;-61
2023/12/06 11:28:14;;;;;;;60.70;29.17;;;3.60;99.90;;;;;;5031340;28;20477;-60
2023/12/06 11:30:51;;;;;;;60.50;28.02;;;3.50;99.90;;;;;;5030721;28;20064;-60
2023/12/06 11:33:18;;;;;;;65.43;33.13;;;3.60;99.90;;;;;;5023324;28;20371;-60
2023/12/06 11:35:50;;;;;;;67.55;31.98;;;3.60;99.90;;;;;;5030920;28;20053;-59
2023/12/06 11:38:18;;;;;;;59.25;30.52;;;3.60;99.90;;;;;;5017263;28;20042;-58
2023/12/06 11:40:49;;;;;;;;;;;3.70;99.90;;;;;;5007123;28;20405;-58
2023/12/06 11:43:16;;;;;;;64.30;29.92;;;3.60;99.90;;;;;;5009774;28;19922;-60
2023/12/06 11:45:43;;;;;;;57.92;29.30;;;3.50;99.90;;;;;;5016687;28;20033;-59
2023/12/06 11:48:13;;;;;;;61.17;32.15;;;3.50;99.90;;;;;;5024253;28;20429;-57
2023/12/06 11:50:45;;;;;;;63.25;29.70;;;3.60;99.90;;;;;;5030769;28;20128;-59
2023/12/06 11:53:12;;;;;;;55.95;27.60;;;3.70;99.90;;;;;;5018161;28;20517;-60
2023/12/06 11:55:42;;;;;;;60.65;28.98;;;3.70;99.90;;;;;;5016948;28;20112;-59
2023/12/06 11:58:11;;;;;;;60.15;28.42;;;3.70;99.90;;;;;;5023278;28;20042;-59
2023/12/06 12:00:49;;;;;;;60.47;28.98;;;3.70;99.90;;;;;;5022531;28;20041;-59
2023/12/06 12:03:16;;;;;;;;;;;3.70;99.90;;;;;;5014226;28;20133;-56
2023/12/06 12:05:47;;;;;;;59.65;28.95;;;3.60;99.90;;;;;;5012412;28;19952;-60
2023/12/06 12:08:15;;;;;;;81.15;35.63;;;3.60;99.90;;;;;;5024214;28;20120;-58
2023/12/06 12:10:42;;;;;;;65.72;32.60;;;3.60;99.90;;;;;;5011707;28;20095;-59
2023/12/06 12:13:17;;;;;;;70.18;33.58;;;3.60;99.90;;;;;;5023585;28;20053;-60
2023/12/06 12:16:02;;;;;;;71.15;32.65;;;3.70;99.90;;;;;;5027130;28;20042;-59
2023/12/06 12:18:32;;;;;;;68.90;33.77;;;3.70;99.90;;;;;;5020163;28;20045;-56
2023/12/06 12:21:05;;;;;;;72.93;33.13;;;3.70;99.90;;;;;;5030188;28;20045;-58
2023/12/06 12:23:32;;;;;;;66.28;31.17;;;3.70;99.90;;;;;;5017485;28;20046;-59
2023/12/06 12:25:59;;;;;;;61.00;30.50;;;3.80;99.90;;;;;;5018390;28;20045;-59
2023/12/06 12:28:26;;;;;;;70.00;30.67;;;3.90;99.90;;;;;;5027798;28;20037;-60
2023/12/06 12:31:04;;;;;;;63.03;30.17;;;4.00;99.90;;;;;;5029875;28;20111;-59
2023/12/06 12:33:32;;;;;;;63.92;30.63;;;4.10;99.90;;;;;;5024115;28;20529;-60
2023/12/06 12:36:00;;;;;;;66.80;31.73;;;4.20;99.90;;;;;;5029557;28;20045;-58
2023/12/06 12:38:27;;;;;;;57.65;28.88;;;4.20;99.90;;;;;;5024860;28;20045;-59
2023/12/06 12:40:54;;;;;;;43.95;24.65;;;4.20;99.90;;;;;;5019569;28;20065;-60
2023/12/06 12:43:21;;;;;;;47.00;25.75;;;4.20;99.90;;;;;;5017345;28;20099;-59